Time;durP1;ratioP1;P1;durP2;ratioP2;P2;SDS_P1;SDS_P2;PMS_P1;PMS_P2;Temp;Humidity;BMP_temperature;BMP_pressure;BME280_temperature;BME280_humidity;BME280_pressure;Samples;Min_cycle;Max_cycle;Signal;HPM_P1;HPM_P2
2020/12/22 00:02:14;;;;;;;3.15;2.17;;;12.20;93.90;;;;;;5112668;28;20043;-73
2020/12/22 00:04:40;;;;;;;3.00;2.15;;;12.20;93.90;;;;;;5112574;28;20047;-74
2020/12/22 00:07:06;;;;;;;3.40;2.35;;;12.20;93.90;;;;;;5112909;28;20121;-73
2020/12/22 00:09:31;;;;;;;2.55;1.90;;;12.30;93.90;;;;;;5112891;28;20131;-72
2020/12/22 00:11:57;;;;;;;3.03;2.10;;;12.30;93.90;;;;;;5112958;28;20182;-74
2020/12/22 00:14:23;;;;;;;3.55;2.60;;;12.40;93.90;;;;;;5094248;28;20031;-73
2020/12/22 00:16:49;;;;;;;4.03;2.70;;;12.40;94.00;;;;;;5112580;28;20035;-73
2020/12/22 00:19:14;;;;;;;3.03;2.22;;;12.40;93.90;;;;;;5112271;28;20059;-72
2020/12/22 00:21:40;;;;;;;3.58;2.30;;;12.40;93.90;;;;;;5112385;28;20481;-72
2020/12/22 00:24:06;;;;;;;3.38;2.08;;;12.50;93.90;;;;;;5112811;28;20044;-74
2020/12/22 00:26:32;;;;;;;3.25;2.15;;;12.50;93.90;;;;;;5112431;28;20070;-74
2020/12/22 00:28:57;;;;;;;3.53;2.30;;;12.50;93.90;;;;;;5094264;28;20063;-74
2020/12/22 00:31:23;;;;;;;3.33;2.33;;;12.50;93.90;;;;;;5112357;28;20534;-74
2020/12/22 00:33:49;;;;;;;3.15;2.10;;;12.50;94.00;;;;;;5112347;28;20035;-74
2020/12/22 00:36:15;;;;;;;3.00;2.00;;;12.60;94.00;;;;;;5094575;28;20479;-75
2020/12/22 00:38:43;;;;;;;2.30;1.65;;;12.60;94.00;;;;;;5112366;28;20040;-74
2020/12/22 00:41:16;;;;;;;2.50;1.77;;;12.60;94.00;;;;;;5093500;28;20405;-73
2020/12/22 00:43:42;;;;;;;2.38;1.70;;;12.60;94.00;;;;;;5111953;28;20048;-73
2020/12/22 00:46:13;;;;;;;2.28;1.70;;;12.70;94.00;;;;;;5112250;28;20436;-74
2020/12/22 00:48:39;;;;;;;2.17;1.70;;;12.70;94.00;;;;;;5112002;28;20463;-73
2020/12/22 00:51:05;;;;;;;2.10;1.63;;;12.70;94.00;;;;;;5111918;28;20039;-73
2020/12/22 00:53:30;;;;;;;3.75;1.85;;;12.80;94.00;;;;;;5112337;28;20389;-74
2020/12/22 00:55:56;;;;;;;2.50;1.88;;;12.80;94.00;;;;;;5112254;28;20373;-74
2020/12/22 00:58:22;;;;;;;3.17;2.10;;;12.80;94.00;;;;;;5112298;28;20081;-75
2020/12/22 01:00:47;;;;;;;1.92;1.60;;;12.90;94.00;;;;;;5111878;28;20035;-74
2020/12/22 01:03:13;;;;;;;3.10;2.17;;;12.90;94.00;;;;;;5112468;28;20126;-74
2020/12/22 01:05:39;;;;;;;2.05;1.48;;;13.00;94.00;;;;;;5115079;28;20046;-71
2020/12/22 01:08:04;;;;;;;2.20;1.65;;;13.00;94.00;;;;;;5115745;28;20032;-72
2020/12/22 01:10:30;;;;;;;2.33;1.70;;;13.00;94.00;;;;;;5115298;28;20122;-74
2020/12/22 01:12:56;;;;;;;1.67;1.40;;;13.00;94.00;;;;;;5115721;28;20586;-74
2020/12/22 01:15:21;;;;;;;2.15;1.63;;;13.10;94.00;;;;;;5115158;28;20106;-74
2020/12/22 01:17:47;;;;;;;2.38;1.77;;;13.00;94.00;;;;;;5115171;28;20473;-74
2020/12/22 01:20:13;;;;;;;2.35;1.70;;;13.10;94.00;;;;;;5115100;28;20413;-74
2020/12/22 01:22:39;;;;;;;2.50;1.75;;;13.10;94.00;;;;;;5115011;28;20149;-73
2020/12/22 01:25:05;;;;;;;2.40;1.70;;;13.10;94.00;;;;;;5115099;28;20096;-73
2020/12/22 01:27:30;;;;;;;2.15;1.65;;;13.20;94.00;;;;;;5115091;28;20108;-74
2020/12/22 01:29:56;;;;;;;2.45;1.80;;;13.20;94.00;;;;;;5115214;28;20035;-73
2020/12/22 01:32:22;;;;;;;2.28;1.70;;;13.20;94.00;;;;;;5114813;28;20500;-74
2020/12/22 01:34:48;;;;;;;2.17;1.60;;;13.20;94.00;;;;;;5115035;28;20403;-74
2020/12/22 01:37:14;;;;;;;1.50;1.30;;;13.20;94.00;;;;;;5097186;28;20039;-74
2020/12/22 01:39:39;;;;;;;1.60;1.33;;;13.30;94.10;;;;;;5114631;28;20043;-75
2020/12/22 01:42:10;;;;;;;1.77;1.50;;;13.20;94.10;;;;;;5114760;28;20067;-73
2020/12/22 01:44:36;;;;;;;1.50;1.30;;;13.20;94.10;;;;;;5114959;28;20039;-74
2020/12/22 01:47:02;;;;;;;3.05;1.38;;;13.20;94.10;;;;;;5115038;28;20576;-74
2020/12/22 01:49:28;;;;;;;2.05;1.58;;;13.20;94.10;;;;;;5114520;28;20039;-74
2020/12/22 01:51:57;;;;;;;1.80;1.40;;;13.20;94.10;;;;;;5114399;28;20046;-74
2020/12/22 01:54:23;;;;;;;1.75;1.35;;;13.20;94.10;;;;;;5096619;28;20042;-74
2020/12/22 01:56:49;;;;;;;1.48;1.20;;;13.20;94.10;;;;;;5114471;28;20098;-74
2020/12/22 01:59:17;;;;;;;1.15;1.00;;;13.20;94.10;;;;;;5095478;28;20048;-74
2020/12/22 02:01:43;;;;;;;1.15;1.00;;;13.20;94.20;;;;;;5114401;28;20044;-73
2020/12/22 02:04:10;;;;;;;1.20;1.00;;;13.20;94.20;;;;;;5114308;28;20043;-74
2020/12/22 02:06:36;;;;;;;1.55;1.05;;;13.20;94.20;;;;;;5094204;28;20455;-73
2020/12/22 02:09:05;;;;;;;1.10;0.82;;;13.20;94.20;;;;;;5095957;28;20043;-73
2020/12/22 02:11:32;;;;;;;1.13;0.90;;;13.20;94.20;;;;;;5114679;28;20062;-73
2020/12/22 02:13:59;;;;;;;0.98;0.88;;;13.20;94.20;;;;;;5114553;28;20050;-73
2020/12/22 02:16:26;;;;;;;1.10;1.00;;;13.30;94.20;;;;;;5113376;28;20040;-73
2020/12/22 02:18:53;;;;;;;1.20;1.10;;;13.30;94.20;;;;;;5114615;28;20044;-73
2020/12/22 02:21:20;;;;;;;1.63;1.27;;;13.40;94.30;;;;;;5095866;28;20047;-72
2020/12/22 02:23:49;;;;;;;1.20;1.10;;;13.30;94.20;;;;;;5114512;28;20035;-72
2020/12/22 02:26:16;;;;;;;2.08;1.00;;;13.30;94.20;;;;;;5095709;28;20404;-72
2020/12/22 02:28:41;;;;;;;1.10;1.00;;;13.30;94.20;;;;;;5114167;28;20127;-73
2020/12/22 02:31:07;;;;;;;1.23;1.13;;;13.40;94.20;;;;;;5114387;28;20130;-74
2020/12/22 02:33:33;;;;;;;1.10;1.00;;;13.30;94.20;;;;;;5113935;28;20116;-73
2020/12/22 02:35:59;;;;;;;1.20;1.10;;;13.30;94.20;;;;;;5114371;28;20484;-72
2020/12/22 02:38:24;;;;;;;1.25;1.00;;;13.40;94.30;;;;;;5113995;28;20039;-73
2020/12/22 02:40:50;;;;;;;1.20;1.00;;;13.30;94.20;;;;;;5114388;28;20500;-73
2020/12/22 02:43:16;;;;;;;1.10;1.00;;;13.40;94.30;;;;;;5095950;28;20075;-73
2020/12/22 02:45:43;;;;;;;1.20;1.10;;;13.40;94.30;;;;;;5113851;28;20036;-73
2020/12/22 02:48:10;;;;;;;1.23;1.10;;;13.50;94.30;;;;;;5114234;28;20045;-73
2020/12/22 02:50:36;;;;;;;1.25;1.08;;;13.40;94.30;;;;;;5114245;28;20043;-73
2020/12/22 02:53:03;;;;;;;1.13;1.02;;;13.40;94.30;;;;;;5113678;28;20046;-73
2020/12/22 02:55:29;;;;;;;0.77;0.73;;;13.30;94.30;;;;;;5114321;28;20045;-74
2020/12/22 02:57:54;;;;;;;0.80;0.80;;;13.30;94.30;;;;;;5113591;28;20035;-73
2020/12/22 03:00:21;;;;;;;1.10;0.93;;;13.30;94.30;;;;;;5113654;28;20047;-73
2020/12/22 03:02:46;;;;;;;1.13;1.02;;;13.30;94.30;;;;;;5095875;28;20066;-73
2020/12/22 03:05:12;;;;;;;0.80;0.80;;;13.30;94.40;;;;;;5095336;28;20477;-73
2020/12/22 03:07:38;;;;;;;1.70;1.20;;;13.30;94.40;;;;;;5113550;28;20038;-73
2020/12/22 03:10:08;;;;;;;1.65;1.25;;;13.40;94.40;;;;;;5113575;28;20043;-73
2020/12/22 03:12:34;;;;;;;1.57;1.20;;;13.30;94.40;;;;;;5114050;28;20082;-74
2020/12/22 03:15:01;;;;;;;2.05;1.50;;;13.30;94.40;;;;;;5113430;28;20129;-73
2020/12/22 03:17:26;;;;;;;1.83;1.52;;;13.30;94.40;;;;;;5095289;28;20039;-74
2020/12/22 03:19:52;;;;;;;2.28;1.70;;;13.30;94.40;;;;;;5113143;28;20512;-73
2020/12/22 03:22:18;;;;;;;2.80;2.08;;;13.30;94.40;;;;;;5113593;28;20507;-73
2020/12/22 03:24:43;;;;;;;2.60;2.00;;;13.30;94.40;;;;;;5113227;28;20046;-73
2020/12/22 03:27:12;;;;;;;1.95;1.55;;;13.40;94.40;;;;;;5113117;28;20035;-74
2020/12/22 03:29:38;;;;;;;3.03;2.05;;;13.30;94.40;;;;;;5113011;28;20043;-73
2020/12/22 03:32:04;;;;;;;2.17;1.80;;;13.30;94.40;;;;;;5112930;28;20039;-73
2020/12/22 03:34:29;;;;;;;2.25;1.83;;;13.30;94.40;;;;;;5113484;28;20027;-73
2020/12/22 03:36:55;;;;;;;2.53;1.73;;;13.30;94.50;;;;;;5113148;28;20039;-73
2020/12/22 03:39:21;;;;;;;2.40;1.90;;;13.30;94.50;;;;;;5113403;28;20035;-73
2020/12/22 03:41:46;;;;;;;3.70;2.42;;;13.30;94.50;;;;;;5113279;28;20154;-73
2020/12/22 03:44:13;;;;;;;2.25;1.80;;;13.20;94.50;;;;;;5113167;28;20088;-72
2020/12/22 03:46:47;;;;;;;2.60;1.90;;;13.20;94.50;;;;;;5093972;28;20378;-72
2020/12/22 03:49:12;;;;;;;2.63;1.70;;;13.20;94.50;;;;;;5112630;28;20122;-73
2020/12/22 03:51:38;;;;;;;1.45;1.33;;;13.30;94.60;;;;;;5113056;28;20143;-73
2020/12/22 03:54:03;;;;;;;1.65;1.30;;;13.30;94.50;;;;;;5112684;28;20043;-73
2020/12/22 03:56:29;;;;;;;1.88;1.60;;;13.20;94.50;;;;;;5113278;28;20519;-73
2020/12/22 03:58:55;;;;;;;1.60;1.40;;;13.20;94.50;;;;;;5112983;28;20079;-72
2020/12/22 04:01:20;;;;;;;1.42;1.23;;;13.20;94.60;;;;;;5112833;28;20076;-73
2020/12/22 04:03:46;;;;;;;1.77;1.30;;;13.20;94.60;;;;;;5112883;28;20069;-73
2020/12/22 04:06:12;;;;;;;1.45;1.17;;;13.20;94.50;;;;;;5112777;28;20083;-73
2020/12/22 04:08:37;;;;;;;1.70;1.33;;;13.20;94.60;;;;;;5112577;28;20035;-72
2020/12/22 04:11:03;;;;;;;1.98;1.30;;;13.20;94.60;;;;;;5112385;28;20047;-73
2020/12/22 04:13:29;;;;;;;1.77;1.45;;;13.20;94.60;;;;;;5094271;28;20027;-73
2020/12/22 04:15:55;;;;;;;2.50;1.52;;;13.20;94.60;;;;;;5112244;28;20370;-73
2020/12/22 04:18:21;;;;;;;2.08;1.58;;;13.20;94.60;;;;;;5112499;28;20177;-73
2020/12/22 04:20:47;;;;;;;2.08;1.48;;;13.20;94.60;;;;;;5112884;28;20047;-73
2020/12/22 04:23:13;;;;;;;1.75;1.30;;;13.20;94.50;;;;;;5112875;28;20035;-74
2020/12/22 04:25:39;;;;;;;1.60;1.30;;;13.20;94.50;;;;;;5112404;28;20038;-72
2020/12/22 04:28:04;;;;;;;1.23;1.08;;;13.20;94.50;;;;;;5092602;28;20044;-74
2020/12/22 04:30:31;;;;;;;1.77;1.30;;;13.20;94.50;;;;;;5093790;28;20046;-74
2020/12/22 04:32:56;;;;;;;2.45;1.38;;;13.20;94.60;;;;;;5112203;28;20036;-72
2020/12/22 04:35:22;;;;;;;1.77;1.40;;;13.20;94.60;;;;;;5094494;28;20088;-73
2020/12/22 04:37:48;;;;;;;2.65;1.65;;;13.10;94.50;;;;;;5112216;28;20040;-73
2020/12/22 04:40:14;;;;;;;1.83;1.50;;;13.20;94.60;;;;;;5114862;28;20431;-73
2020/12/22 04:42:41;;;;;;;2.80;1.55;;;13.10;94.60;;;;;;5097892;28;20047;-74
2020/12/22 04:45:07;;;;;;;2.92;2.03;;;13.10;94.60;;;;;;5115866;28;20397;-73
2020/12/22 04:47:40;;;;;;;2.45;1.75;;;13.10;94.60;;;;;;5116354;28;20039;-74
2020/12/22 04:50:06;;;;;;;2.58;1.88;;;13.10;94.60;;;;;;5115590;28;20127;-74
2020/12/22 04:52:33;;;;;;;3.13;1.77;;;13.10;94.60;;;;;;5115909;28;20051;-73
2020/12/22 04:54:59;;;;;;;3.35;1.95;;;13.10;94.70;;;;;;5115906;28;20327;-74
2020/12/22 04:57:30;;;;;;;2.65;1.70;;;13.10;94.70;;;;;;5115957;28;20050;-73
2020/12/22 04:59:57;;;;;;;2.13;1.50;;;13.10;94.60;;;;;;5115564;28;20058;-73
2020/12/22 05:02:27;;;;;;;1.83;1.50;;;13.10;94.60;;;;;;5115850;28;20130;-73
2020/12/22 05:04:53;;;;;;;2.63;1.63;;;13.20;94.60;;;;;;5115734;28;20043;-73
2020/12/22 05:07:18;;;;;;;1.67;1.40;;;13.20;94.50;;;;;;5116258;28;20477;-73
2020/12/22 05:09:46;;;;;;;2.38;1.50;;;13.20;94.50;;;;;;5115725;28;20435;-73
2020/12/22 05:12:13;;;;;;;2.28;1.20;;;13.20;94.40;;;;;;5115649;28;20116;-73
2020/12/22 05:14:41;;;;;;;1.67;1.30;;;13.30;94.40;;;;;;5116162;28;20488;-73
2020/12/22 05:17:06;;;;;;;2.47;1.48;;;13.30;94.40;;;;;;5115603;28;20032;-72
2020/12/22 05:19:35;;;;;;;1.85;1.60;;;13.30;94.40;;;;;;5115376;28;20039;-73
2020/12/22 05:22:03;;;;;;;2.03;1.73;;;13.30;94.40;;;;;;5115485;28;20044;-72
2020/12/22 05:24:29;;;;;;;2.95;1.70;;;13.30;94.30;;;;;;5115488;28;20040;-72
2020/12/22 05:26:55;;;;;;;2.50;1.73;;;13.30;94.30;;;;;;5115297;28;20043;-72
2020/12/22 05:29:24;;;;;;;2.67;1.60;;;13.30;94.20;;;;;;5115416;28;20451;-72
2020/12/22 05:31:51;;;;;;;3.75;1.73;;;13.20;94.20;;;;;;5115202;28;20092;-72
2020/12/22 05:34:18;;;;;;;3.03;1.58;;;13.20;94.20;;;;;;5115252;28;20040;-72
2020/12/22 05:36:45;;;;;;;1.80;1.58;;;13.20;94.20;;;;;;5115253;28;20043;-72
2020/12/22 05:39:14;;;;;;;3.85;1.65;;;13.30;94.20;;;;;;5115643;28;20118;-72
2020/12/22 05:41:40;;;;;;;2.72;1.70;;;13.20;94.20;;;;;;5115185;28;20611;-73
2020/12/22 05:44:07;;;;;;;2.67;1.80;;;13.20;94.20;;;;;;5115268;28;20047;-72
2020/12/22 05:46:35;;;;;;;2.28;1.60;;;13.20;94.20;;;;;;5114880;28;20043;-72
2020/12/22 05:49:03;;;;;;;2.17;1.60;;;13.20;94.20;;;;;;5096651;28;20405;-73
2020/12/22 05:51:31;;;;;;;2.05;1.30;;;13.10;94.20;;;;;;5113729;28;20043;-71
2020/12/22 05:54:04;;;;;;;1.48;1.08;;;13.10;94.20;;;;;;5115065;28;20054;-70
2020/12/22 05:56:30;;;;;;;2.58;1.02;;;13.10;94.20;;;;;;5114840;28;20516;-70
2020/12/22 05:58:57;;;;;;;1.60;1.20;;;13.20;94.20;;;;;;5114766;28;20046;-70
2020/12/22 06:01:32;;;;;;;2.08;1.00;;;13.20;94.20;;;;;;5114670;28;20039;-70
2020/12/22 06:03:59;;;;;;;1.80;1.10;;;13.20;94.20;;;;;;5115189;28;20043;-71
2020/12/22 06:06:27;;;;;;;3.10;1.30;;;13.20;94.10;;;;;;5115173;28;20104;-71
2020/12/22 06:08:53;;;;;;;2.85;1.35;;;13.30;94.00;;;;;;5114597;28;20122;-71
2020/12/22 06:11:19;;;;;;;2.65;1.50;;;13.30;94.00;;;;;;5096748;28;20040;-71
2020/12/22 06:13:50;;;;;;;2.83;1.55;;;13.30;93.90;;;;;;5114651;28;20481;-71
2020/12/22 06:16:20;;;;;;;3.05;1.70;;;13.30;93.90;;;;;;5114501;28;20031;-70
2020/12/22 06:18:47;;;;;;;5.82;2.10;;;13.30;93.90;;;;;;5114417;28;20046;-71
2020/12/22 06:21:16;;;;;;;3.47;1.88;;;13.30;94.00;;;;;;5114528;28;20130;-71
2020/12/22 06:23:41;;;;;;;4.72;2.38;;;13.30;93.90;;;;;;5114920;28;20478;-71
2020/12/22 06:26:07;;;;;;;4.80;2.92;;;13.30;93.90;;;;;;5114354;28;20043;-71
2020/12/22 06:28:33;;;;;;;4.63;3.03;;;13.20;93.90;;;;;;5114355;28;20044;-70
2020/12/22 06:31:03;;;;;;;4.40;2.67;;;13.20;93.90;;;;;;5114234;28;20036;-70
2020/12/22 06:33:35;;;;;;;4.00;2.70;;;13.20;93.90;;;;;;5114163;28;20431;-71
2020/12/22 06:36:06;;;;;;;6.03;3.10;;;13.20;93.90;;;;;;5114220;28;20044;-73
2020/12/22 06:39:03;;;;;;;4.15;2.65;;;13.30;94.00;;;;;;5093868;28;20394;-70
2020/12/22 06:41:44;;;;;;;4.78;2.70;;;13.20;94.00;;;;;;5114130;28;20500;-70
2020/12/22 06:44:22;;;;;;;5.55;3.42;;;13.20;94.00;;;;;;5114109;28;20043;-71
2020/12/22 06:46:51;;;;;;;5.40;3.10;;;13.20;93.90;;;;;;5095788;28;20105;-72
2020/12/22 06:49:18;;;;;;;4.95;3.10;;;13.20;93.90;;;;;;5114093;28;20043;-70
2020/12/22 06:51:43;;;;;;;4.65;2.90;;;13.30;93.90;;;;;;5113994;28;20138;-73
2020/12/22 06:54:31;;;;;;;5.13;3.67;;;13.20;93.90;;;;;;5095563;28;20071;-71
2020/12/22 06:56:56;;;;;;;6.38;3.60;;;13.30;93.90;;;;;;5099088;28;20496;-73
2020/12/22 06:59:47;;;;;;;5.82;3.53;;;13.20;93.80;;;;;;5095599;28;20035;-73
2020/12/22 07:02:31;;;;;;;8.60;4.90;;;13.20;93.90;;;;;;5099860;28;20131;-73
2020/12/22 07:04:58;;;;;;;10.75;5.07;;;13.20;93.80;;;;;;5095613;28;20532;-73
2020/12/22 07:07:24;;;;;;;8.68;4.30;;;13.30;93.80;;;;;;5113867;28;20072;-73
2020/12/22 07:10:00;;;;;;;7.07;4.18;;;13.30;93.70;;;;;;5114115;28;20088;-72
2020/12/22 07:12:26;;;;;;;7.25;4.00;;;13.20;93.70;;;;;;5113935;28;20142;-72
2020/12/22 07:14:52;;;;;;;8.77;4.18;;;13.30;93.70;;;;;;5113612;28;20035;-71
2020/12/22 07:17:19;;;;;;;8.55;3.70;;;13.20;93.70;;;;;;5113942;28;20104;-72
2020/12/22 07:19:47;;;;;;;8.60;3.92;;;13.40;93.60;;;;;;5113624;28;20039;-70
2020/12/22 07:22:15;;;;;;;5.68;3.28;;;13.20;93.60;;;;;;5113230;28;20054;-70
2020/12/22 07:24:41;;;;;;;6.43;2.78;;;13.30;93.60;;;;;;5113695;28;20043;-72
2020/12/22 07:27:08;;;;;;;5.43;2.38;;;13.20;93.50;;;;;;5113470;28;20123;-72
2020/12/22 07:29:36;;;;;;;5.28;2.20;;;13.20;93.50;;;;;;5113567;28;20572;-69
2020/12/22 07:32:03;;;;;;;5.13;2.00;;;13.20;93.50;;;;;;5113507;28;20046;-72
2020/12/22 07:34:28;;;;;;;6.43;1.90;;;13.20;93.50;;;;;;5113844;28;20367;-72
2020/12/22 07:37:11;;;;;;;6.20;1.85;;;13.20;93.40;;;;;;5113841;28;20047;-70
2020/12/22 07:39:38;;;;;;;3.03;1.35;;;13.10;93.40;;;;;;5113554;28;20043;-72
2020/12/22 07:42:15;;;;;;;1.98;1.20;;;13.10;93.40;;;;;;5113112;28;20035;-72
2020/12/22 07:44:44;;;;;;;3.22;1.30;;;13.10;93.40;;;;;;5110469;28;20035;-71
2020/12/22 07:47:11;;;;;;;4.72;1.20;;;13.10;93.30;;;;;;5109668;28;20051;-71
2020/12/22 07:49:37;;;;;;;1.48;0.70;;;13.10;93.30;;;;;;5113080;28;20041;-71
2020/12/22 07:52:03;;;;;;;2.85;0.90;;;13.10;93.30;;;;;;5113488;28;20092;-70
2020/12/22 07:54:29;;;;;;;1.65;0.77;;;13.10;93.20;;;;;;5113131;28;20035;-70
2020/12/22 07:57:00;;;;;;;0.90;0.70;;;13.10;93.20;;;;;;5113698;28;20127;-70
2020/12/22 07:59:26;;;;;;;1.95;1.05;;;13.00;93.20;;;;;;5109655;28;20088;-71
2020/12/22 08:01:53;;;;;;;1.10;0.73;;;13.00;93.20;;;;;;5113019;28;20144;-72
2020/12/22 08:04:22;;;;;;;3.03;0.90;;;13.00;93.20;;;;;;5112909;28;20485;-70
2020/12/22 08:06:56;;;;;;;2.83;0.73;;;13.00;93.50;;;;;;5112839;28;20035;-71
2020/12/22 08:09:30;;;;;;;4.13;0.90;;;12.90;93.10;;;;;;5112875;28;20493;-71
2020/12/22 08:11:58;;;;;;;2.35;0.80;;;12.90;93.40;;;;;;5112635;28;20048;-71
2020/12/22 08:14:25;;;;;;;2.38;0.95;;;12.90;93.20;;;;;;5112469;28;20047;-70
2020/12/22 08:16:54;;;;;;;4.72;1.20;;;12.90;93.20;;;;;;5112748;28;20333;-72
2020/12/22 08:19:21;;;;;;;1.70;0.80;;;12.80;93.10;;;;;;5094833;28;20043;-71
2020/12/22 08:21:47;;;;;;;2.80;0.73;;;12.80;93.10;;;;;;5113244;28;20074;-70
2020/12/22 08:24:16;;;;;;;3.47;0.80;;;12.80;93.10;;;;;;5095004;28;20047;-71
2020/12/22 08:26:48;;;;;;;5.65;0.98;;;12.80;93.10;;;;;;5113109;28;20047;-71
2020/12/22 08:29:15;;;;;;;5.05;1.50;;;12.80;93.10;;;;;;5113111;28;20042;-71
2020/12/22 08:31:43;;;;;;;5.70;1.38;;;12.70;93.00;;;;;;5112909;28;20494;-71
2020/12/22 08:34:10;;;;;;;8.20;1.42;;;12.60;93.10;;;;;;5094247;28;20479;-71
2020/12/22 08:36:37;;;;;;;6.47;1.48;;;12.50;93.20;;;;;;5112499;28;20028;-69
2020/12/22 08:39:18;;;;;;;4.47;1.70;;;12.50;93.30;;;;;;5112428;28;20040;-70
2020/12/22 08:41:47;;;;;;;6.35;1.77;;;12.50;93.30;;;;;;5113047;28;20043;-69
2020/12/22 08:44:14;;;;;;;6.05;1.33;;;12.50;93.30;;;;;;5113042;28;20047;-69
2020/12/22 08:46:41;;;;;;;5.15;1.30;;;12.50;93.30;;;;;;5112833;28;20047;-69
2020/12/22 08:49:11;;;;;;;4.82;1.45;;;12.60;93.30;;;;;;5112810;28;20035;-69
2020/12/22 08:51:37;;;;;;;4.80;1.42;;;12.60;93.30;;;;;;5112275;28;20043;-69
2020/12/22 08:54:03;;;;;;;3.40;1.20;;;12.70;93.20;;;;;;5112895;28;20101;-69
2020/12/22 08:56:29;;;;;;;1.83;1.15;;;12.70;93.10;;;;;;5112146;28;20035;-69
2020/12/22 08:59:00;;;;;;;6.50;1.33;;;12.70;93.10;;;;;;5077245;28;20135;-69
2020/12/22 09:01:29;;;;;;;3.58;1.25;;;12.60;93.00;;;;;;5112171;28;20131;-70
2020/12/22 09:03:57;;;;;;;5.70;1.65;;;12.60;93.00;;;;;;5111880;28;20076;-72
2020/12/22 09:06:42;;;;;;;5.40;1.70;;;12.70;93.10;;;;;;5112524;28;20047;-71
2020/12/22 09:09:10;;;;;;;4.93;1.40;;;12.60;93.00;;;;;;5112265;28;20122;-70
2020/12/22 09:11:38;;;;;;;3.20;1.15;;;12.70;93.00;;;;;;5112696;28;20074;-73
2020/12/22 09:14:07;;;;;;;4.40;1.20;;;12.70;93.00;;;;;;5112227;28;20074;-70
2020/12/22 09:16:50;;;;;;;6.28;1.23;;;12.70;93.00;;;;;;5112039;28;20036;-71
2020/12/22 09:19:18;;;;;;;5.13;1.40;;;12.70;93.00;;;;;;5111976;28;20080;-72
2020/12/22 09:21:44;;;;;;;7.53;1.35;;;12.70;93.00;;;;;;5112508;28;20123;-71
2020/12/22 09:24:19;;;;;;;4.28;1.17;;;12.70;93.00;;;;;;5111660;28;20075;-71
2020/12/22 09:26:53;;;;;;;5.13;1.40;;;12.70;92.90;;;;;;5114378;28;20035;-70
2020/12/22 09:29:19;;;;;;;4.07;1.20;;;12.70;92.90;;;;;;5115351;28;20042;-71
2020/12/22 09:31:45;;;;;;;5.85;1.52;;;12.70;92.90;;;;;;5115844;28;20051;-71
2020/12/22 09:34:11;;;;;;;6.25;1.25;;;12.70;92.90;;;;;;5115296;28;20494;-71
2020/12/22 09:36:36;;;;;;;3.95;1.15;;;12.60;92.90;;;;;;5115291;28;20426;-71
2020/12/22 09:39:03;;;;;;;3.97;1.00;;;12.60;92.90;;;;;;5115070;28;20038;-71
2020/12/22 09:41:29;;;;;;;5.80;1.30;;;12.70;92.90;;;;;;5115260;28;20048;-71
2020/12/22 09:43:54;;;;;;;4.03;1.10;;;12.70;92.90;;;;;;5114947;28;20047;-71
2020/12/22 09:46:21;;;;;;;5.55;1.42;;;12.70;92.90;;;;;;5094832;28;20035;-71
2020/12/22 09:48:46;;;;;;;4.35;1.30;;;12.70;92.90;;;;;;5096857;28;20096;-71
2020/12/22 09:51:14;;;;;;;3.20;0.90;;;12.70;92.90;;;;;;5114823;28;20443;-71
2020/12/22 09:53:40;;;;;;;3.20;1.00;;;12.70;92.90;;;;;;5115167;28;20118;-71
2020/12/22 09:56:05;;;;;;;4.70;1.08;;;12.80;92.90;;;;;;5115109;28;20066;-71
2020/12/22 09:58:31;;;;;;;4.32;1.50;;;12.80;92.80;;;;;;5114776;28;20036;-71
2020/12/22 10:00:57;;;;;;;3.70;1.38;;;12.80;92.80;;;;;;5114783;28;20429;-72
2020/12/22 10:03:22;;;;;;;3.95;1.23;;;12.80;92.80;;;;;;5094587;28;20186;-72
2020/12/22 10:05:48;;;;;;;6.63;1.40;;;12.80;92.80;;;;;;5096088;28;20047;-72
2020/12/22 10:08:14;;;;;;;4.20;1.27;;;12.80;92.80;;;;;;5096541;28;20047;-71
2020/12/22 10:10:40;;;;;;;2.72;1.20;;;12.80;92.80;;;;;;5113389;28;20043;-71
2020/12/22 10:13:06;;;;;;;3.67;1.20;;;12.80;92.80;;;;;;5114267;28;20035;-71
2020/12/22 10:15:31;;;;;;;5.53;1.40;;;12.80;92.80;;;;;;5114555;28;20389;-70
2020/12/22 10:18:01;;;;;;;5.38;1.73;;;12.70;92.80;;;;;;5114382;28;20477;-70
2020/12/22 10:21:01;;;;;;;4.03;1.38;;;12.70;92.80;;;;;;5096752;28;20036;-70
2020/12/22 10:23:26;;;;;;;2.40;1.17;;;12.60;92.90;;;;;;5114352;28;20462;-70
2020/12/22 10:25:52;;;;;;;2.08;1.02;;;12.60;92.90;;;;;;5114491;28;20114;-70
2020/12/22 10:28:18;;;;;;;2.65;1.05;;;12.50;92.90;;;;;;5096212;28;20035;-70
2020/12/22 10:30:43;;;;;;;2.60;0.95;;;12.50;93.00;;;;;;5114759;28;20089;-71
2020/12/22 10:33:09;;;;;;;2.30;0.90;;;12.40;93.10;;;;;;5114314;28;20106;-70
2020/12/22 10:35:35;;;;;;;1.35;1.00;;;12.40;93.20;;;;;;5114799;28;20035;-71
2020/12/22 10:38:01;;;;;;;2.58;1.00;;;12.40;93.20;;;;;;5113929;28;20037;-71
2020/12/22 10:40:26;;;;;;;4.53;1.45;;;12.40;93.20;;;;;;5114362;28;20035;-70
2020/12/22 10:42:52;;;;;;;5.53;1.10;;;12.40;93.20;;;;;;5113871;28;20039;-70
2020/12/22 10:45:18;;;;;;;3.67;1.42;;;12.40;93.20;;;;;;5095876;28;20501;-71
2020/12/22 10:47:44;;;;;;;3.10;1.27;;;12.50;93.30;;;;;;5078825;28;20071;-72
2020/12/22 10:50:09;;;;;;;4.30;1.40;;;12.50;93.20;;;;;;5113805;28;20111;-71
2020/12/22 10:52:35;;;;;;;4.93;1.40;;;12.50;93.20;;;;;;5113912;28;20135;-71
2020/12/22 10:55:01;;;;;;;3.85;1.15;;;12.50;93.20;;;;;;5114381;28;20042;-71
2020/12/22 10:57:26;;;;;;;5.55;1.52;;;12.50;93.20;;;;;;5114027;28;20532;-72
2020/12/22 10:59:52;;;;;;;5.10;1.70;;;12.50;93.20;;;;;;5113925;28;20043;-72
2020/12/22 11:02:18;;;;;;;4.25;1.60;;;12.60;93.20;;;;;;5113539;28;20040;-71
2020/12/22 11:04:43;;;;;;;4.78;2.47;;;12.60;93.20;;;;;;5114103;28;20039;-71
2020/12/22 11:07:18;;;;;;;4.57;1.67;;;12.60;93.10;;;;;;5113654;28;20077;-71
2020/12/22 11:09:45;;;;;;;6.25;2.17;;;12.60;93.10;;;;;;5097014;28;20054;-71
2020/12/22 11:12:10;;;;;;;4.00;1.70;;;12.50;93.00;;;;;;5113516;28;20043;-71
2020/12/22 11:14:37;;;;;;;6.20;2.05;;;12.50;93.10;;;;;;5093171;28;20043;-71
2020/12/22 11:17:02;;;;;;;3.65;1.73;;;12.50;93.10;;;;;;5113962;28;20066;-71
2020/12/22 11:19:28;;;;;;;4.50;1.98;;;12.50;93.40;;;;;;5113389;28;20031;-71
2020/12/22 11:21:54;;;;;;;3.38;1.88;;;12.50;93.10;;;;;;5095143;28;20481;-71
2020/12/22 11:24:20;;;;;;;4.85;2.05;;;12.40;93.10;;;;;;5113343;28;20119;-71
2020/12/22 11:26:46;;;;;;;3.78;1.80;;;12.40;93.20;;;;;;5113939;28;20040;-72
2020/12/22 11:29:11;;;;;;;4.40;1.80;;;12.40;93.20;;;;;;5094985;28;20043;-71
2020/12/22 11:31:37;;;;;;;3.03;1.73;;;12.40;93.20;;;;;;5095049;28;20042;-72
2020/12/22 11:34:03;;;;;;;2.28;1.20;;;12.40;93.30;;;;;;5113718;28;20074;-71
2020/12/22 11:36:28;;;;;;;1.92;1.10;;;12.20;93.20;;;;;;5113709;28;20036;-71
2020/12/22 11:38:54;;;;;;;1.80;1.10;;;12.20;93.30;;;;;;5113797;28;20493;-72
2020/12/22 11:41:22;;;;;;;1.35;0.80;;;12.10;93.30;;;;;;5113770;28;20043;-71
2020/12/22 11:43:51;;;;;;;1.98;0.77;;;12.00;93.40;;;;;;5113618;28;20036;-71
2020/12/22 11:46:17;;;;;;;1.20;0.68;;;12.00;93.40;;;;;;5076583;28;20482;-71
2020/12/22 11:48:42;;;;;;;0.70;0.60;;;12.00;93.50;;;;;;5112229;28;20044;-71
2020/12/22 11:51:08;;;;;;;1.50;0.60;;;12.00;93.50;;;;;;5113253;28;20046;-71
2020/12/22 11:53:34;;;;;;;0.75;0.52;;;11.90;93.50;;;;;;5112969;28;20031;-71
2020/12/22 11:56:00;;;;;;;0.90;0.47;;;12.00;93.50;;;;;;5112925;28;20035;-71
2020/12/22 11:58:26;;;;;;;3.03;0.50;;;12.00;93.40;;;;;;5113029;28;20456;-71
2020/12/22 12:00:52;;;;;;;0.95;0.40;;;12.00;93.50;;;;;;5094664;28;20035;-71
2020/12/22 12:03:18;;;;;;;1.23;0.50;;;11.90;93.50;;;;;;5113510;28;20044;-72
2020/12/22 12:05:44;;;;;;;0.63;0.55;;;11.90;93.50;;;;;;5113631;28;20096;-71
2020/12/22 12:08:09;;;;;;;1.30;0.40;;;11.90;93.50;;;;;;5113516;28;20050;-71
2020/12/22 12:10:35;;;;;;;0.90;0.50;;;11.80;93.50;;;;;;5112849;28;20130;-71
2020/12/22 12:13:01;;;;;;;0.75;0.50;;;11.70;93.50;;;;;;5113486;28;20070;-71
2020/12/22 12:15:27;;;;;;;0.60;0.40;;;11.60;93.60;;;;;;5112694;28;20043;-71
2020/12/22 12:17:53;;;;;;;0.35;0.35;;;11.50;93.60;;;;;;5112738;28;20039;-71
2020/12/22 12:20:18;;;;;;;0.50;0.50;;;11.40;93.70;;;;;;5094165;28;20035;-71
2020/12/22 12:22:44;;;;;;;0.40;0.40;;;11.50;93.80;;;;;;5112579;28;20039;-71
2020/12/22 12:25:10;;;;;;;0.85;0.40;;;11.50;93.80;;;;;;5113029;28;20059;-71
2020/12/22 12:27:35;;;;;;;0.60;0.40;;;11.40;93.80;;;;;;5112950;28;20044;-70
2020/12/22 12:30:01;;;;;;;0.73;0.50;;;11.30;93.80;;;;;;5112550;28;20112;-70
2020/12/22 12:32:29;;;;;;;2.25;0.60;;;11.40;93.80;;;;;;5112421;28;20066;-71
2020/12/22 12:34:56;;;;;;;0.80;0.50;;;11.30;93.80;;;;;;5112501;28;20059;-71
2020/12/22 12:37:22;;;;;;;1.33;1.00;;;11.30;93.80;;;;;;5112260;28;20036;-70
2020/12/22 12:39:48;;;;;;;2.08;1.00;;;11.30;93.80;;;;;;5112432;28;20393;-70
2020/12/22 12:42:13;;;;;;;1.25;0.70;;;11.30;93.70;;;;;;5112361;28;20047;-71
2020/12/22 12:44:39;;;;;;;4.03;2.80;;;11.30;93.70;;;;;;5112860;28;20047;-71
2020/12/22 12:47:05;;;;;;;3.53;2.20;;;11.40;93.70;;;;;;5112916;28;20122;-70
2020/12/22 12:49:30;;;;;;;2.63;1.60;;;11.30;93.70;;;;;;5110884;28;20091;-70